createdAt,value
2023-04-24T00:00:33.842Z,9.71
2023-04-24T00:03:01.637Z,9.87
2023-04-24T00:05:29.242Z,9.72
2023-04-24T00:07:56.805Z,9.63
2023-04-24T00:10:25.013Z,9.64
2023-04-24T00:12:52.405Z,9.71
2023-04-24T00:15:19.839Z,9.63
2023-04-24T00:17:47.360Z,9.72
2023-04-24T00:20:15.877Z,9.61
2023-04-24T00:22:43.227Z,9.52
2023-04-24T00:25:10.744Z,9.54
2023-04-24T00:27:39.848Z,9.39
2023-04-24T00:30:07.864Z,9.28
2023-04-24T00:32:35.462Z,9.34
2023-04-24T00:35:03.229Z,9.41
2023-04-24T00:37:30.849Z,9.36
2023-04-24T00:39:58.360Z,9.28
2023-04-24T00:42:26.495Z,9.39
2023-04-24T00:44:54.719Z,9.38
2023-04-24T00:47:23.074Z,9.33
2023-04-24T00:49:50.536Z,9.36
2023-04-24T00:52:18.853Z,9.43
2023-04-24T00:54:46.476Z,9.25
2023-04-24T00:57:16.352Z,9.11
2023-04-24T00:59:45.028Z,9.00
2023-04-24T01:02:13.344Z,9.02
2023-04-24T01:04:41.527Z,8.98
2023-04-24T01:07:12.432Z,9.17
2023-04-24T01:09:44.761Z,9.14
2023-04-24T01:12:12.571Z,9.13
2023-04-24T01:14:40.591Z,9.08
2023-04-24T01:17:08.458Z,9.01
2023-04-24T01:19:35.920Z,9.00
2023-04-24T01:22:04.651Z,8.99
2023-04-24T01:24:32.151Z,9.06
2023-04-24T01:26:59.878Z,9.03
2023-04-24T01:29:27.328Z,9.09
2023-04-24T01:31:56.175Z,9.00
2023-04-24T01:34:23.935Z,9.13
2023-04-24T01:36:51.846Z,9.00
2023-04-24T01:39:21.622Z,8.92
2023-04-24T01:41:50.713Z,9.14
2023-04-24T01:44:19.122Z,9.16
2023-04-24T01:46:46.713Z,9.04
2023-04-24T01:49:14.171Z,9.20
2023-04-24T01:51:41.747Z,9.22
2023-04-24T01:54:09.206Z,9.10
2023-04-24T01:56:41.745Z,9.01
2023-04-24T01:59:11.552Z,8.96
2023-04-24T02:01:40.268Z,8.96
2023-04-24T02:04:09.157Z,9.02
2023-04-24T02:06:36.855Z,9.00
2023-04-24T02:09:04.577Z,9.07
2023-04-24T02:11:32.038Z,8.95
2023-04-24T02:13:59.686Z,8.94
2023-04-24T02:16:27.165Z,9.02
2023-04-24T02:18:54.560Z,9.00
2023-04-24T02:21:21.986Z,9.08
2023-04-24T02:23:49.494Z,9.05
2023-04-24T02:26:17.466Z,8.94
2023-04-24T02:28:45.018Z,8.74
2023-04-24T02:31:12.392Z,9.04
2023-04-24T02:33:39.849Z,8.97
2023-04-24T02:36:07.410Z,8.96
2023-04-24T02:38:34.938Z,9.01
2023-04-24T02:41:03.291Z,9.04
2023-04-24T02:43:31.354Z,9.04
2023-04-24T02:45:58.755Z,9.02
2023-04-24T02:48:26.169Z,9.04
2023-04-24T02:50:54.120Z,8.89
2023-04-24T02:53:21.669Z,8.91
2023-04-24T02:55:49.036Z,8.94
2023-04-24T02:58:16.861Z,9.04
2023-04-24T03:00:44.678Z,9.04
2023-04-24T03:03:12.303Z,9.00
2023-04-24T03:05:40.036Z,9.16
2023-04-24T03:08:07.571Z,9.25
2023-04-24T03:10:35.289Z,9.23
2023-04-24T03:13:02.708Z,9.20
2023-04-24T03:15:30.377Z,9.21
2023-04-24T03:17:57.847Z,9.25
2023-04-24T03:20:25.424Z,9.13
2023-04-24T03:22:52.846Z,8.99
2023-04-24T03:25:20.280Z,8.93
2023-04-24T03:27:48.117Z,9.10
2023-04-24T03:30:15.633Z,9.14
2023-04-24T03:32:43.699Z,9.18
2023-04-24T03:35:11.194Z,9.21
2023-04-24T03:37:38.557Z,9.21
2023-04-24T03:40:07.295Z,9.21
2023-04-24T03:42:34.729Z,9.37
2023-04-24T03:45:02.144Z,9.10
2023-04-24T03:47:29.779Z,9.03
2023-04-24T03:49:57.187Z,9.09
2023-04-24T03:52:24.627Z,9.18
2023-04-24T03:54:51.962Z,9.38
2023-04-24T03:57:19.398Z,9.55
2023-04-24T03:59:47.063Z,9.64
2023-04-24T04:02:14.512Z,9.68
2023-04-24T04:04:42.141Z,9.75
2023-04-24T04:07:09.719Z,9.75
2023-04-24T04:09:37.232Z,9.74
2023-04-24T04:12:04.609Z,9.69
2023-04-24T04:14:32.188Z,9.49
2023-04-24T04:16:59.750Z,9.62
2023-04-24T04:19:27.727Z,9.68
2023-04-24T04:21:57.256Z,9.83
2023-04-24T04:24:25.282Z,9.98
2023-04-24T04:26:53.336Z,10.19
2023-04-24T04:29:20.809Z,10.54
2023-04-24T04:31:48.168Z,10.73
2023-04-24T04:34:15.671Z,10.82
2023-04-24T04:36:44.005Z,11.01
2023-04-24T04:39:11.355Z,11.19
2023-04-24T04:41:41.556Z,11.32
2023-04-24T04:44:09.790Z,11.50
2023-04-24T04:46:38.492Z,11.71
2023-04-24T04:49:05.943Z,11.93
2023-04-24T04:51:33.537Z,12.11
2023-04-24T04:54:01.212Z,12.19
2023-04-24T04:56:28.651Z,12.32
2023-04-24T04:58:56.033Z,12.22
2023-04-24T05:01:24.280Z,12.30
2023-04-24T05:03:51.822Z,12.31
2023-04-24T05:06:21.046Z,12.49
2023-04-24T05:08:49.929Z,12.56
2023-04-24T05:11:17.316Z,12.67
2023-04-24T05:13:44.732Z,12.78
2023-04-24T05:16:12.093Z,12.80
2023-04-24T05:18:39.484Z,12.73
2023-04-24T05:21:07.151Z,12.73
2023-04-24T05:23:34.872Z,12.91
2023-04-24T05:26:02.729Z,12.99
2023-04-24T05:28:30.242Z,13.09
2023-04-24T05:30:57.710Z,13.17
2023-04-24T05:33:25.091Z,13.22
2023-04-24T05:35:52.616Z,13.29
2023-04-24T05:38:20.717Z,13.49
2023-04-24T05:40:48.218Z,13.62
2023-04-24T05:43:15.850Z,13.64
2023-04-24T05:45:43.269Z,13.77
2023-04-24T05:48:10.700Z,13.58
2023-04-24T05:50:38.554Z,13.71
2023-04-24T05:53:08.045Z,13.77
2023-04-24T05:55:35.472Z,13.93
2023-04-24T05:58:03.005Z,14.08
2023-04-24T06:00:32.570Z,14.07
2023-04-24T06:03:02.001Z,13.84
2023-04-24T06:05:29.885Z,13.90
2023-04-24T06:07:57.625Z,14.00
2023-04-24T06:10:25.066Z,14.08
2023-04-24T06:12:52.701Z,14.08
2023-04-24T06:15:20.721Z,13.83
2023-04-24T06:17:48.664Z,14.02
2023-04-24T06:20:16.245Z,13.87
2023-04-24T06:22:43.705Z,14.13
2023-04-24T06:25:11.129Z,14.44
2023-04-24T06:27:39.030Z,14.38
2023-04-24T06:30:07.474Z,14.70
2023-04-24T06:32:35.029Z,14.78
2023-04-24T06:35:02.499Z,14.78
2023-04-24T06:37:30.214Z,14.79
2023-04-24T06:39:57.665Z,14.73
2023-04-24T06:42:25.857Z,15.01
2023-04-24T06:44:53.294Z,15.26
2023-04-24T06:47:20.791Z,15.23
2023-04-24T06:49:48.197Z,15.29
2023-04-24T06:52:15.770Z,15.43
2023-04-24T06:54:43.277Z,15.56
2023-04-24T06:57:11.594Z,15.69
2023-04-24T06:59:39.324Z,15.66
2023-04-24T07:02:07.222Z,15.83
2023-04-24T07:04:35.483Z,15.71
2023-04-24T07:07:03.475Z,15.89
2023-04-24T07:09:31.179Z,15.99
2023-04-24T07:11:58.542Z,15.99
2023-04-24T07:14:25.929Z,16.39
2023-04-24T07:16:53.358Z,16.29
2023-04-24T07:19:20.724Z,16.16
2023-04-24T07:21:48.043Z,16.30
2023-04-24T07:24:15.619Z,16.22
2023-04-24T07:26:43.130Z,16.16
2023-04-24T07:29:10.874Z,16.30
2023-04-24T07:31:38.337Z,16.18
2023-04-24T07:34:05.753Z,16.28
2023-04-24T07:36:33.390Z,16.33
2023-04-24T07:39:00.997Z,16.30
2023-04-24T07:41:29.208Z,16.57
2023-04-24T07:43:56.665Z,16.33
2023-04-24T07:46:24.631Z,16.32
2023-04-24T07:49:05.351Z,16.27
2023-04-24T07:51:40.199Z,16.63
2023-04-24T07:54:07.547Z,16.97
2023-04-24T07:56:35.677Z,16.94
2023-04-24T07:59:03.039Z,17.13
2023-04-24T08:01:31.654Z,17.32
2023-04-24T08:03:59.190Z,17.46
2023-04-24T08:06:31.337Z,17.54
2023-04-24T08:08:59.515Z,17.51
2023-04-24T08:11:27.503Z,18.07
2023-04-24T08:13:56.108Z,17.91
2023-04-24T08:16:25.306Z,17.71
2023-04-24T08:18:54.206Z,17.73
2023-04-24T08:21:21.885Z,17.98
2023-04-24T08:23:49.258Z,18.10
2023-04-24T08:26:16.705Z,18.03
2023-04-24T08:28:44.228Z,17.92
2023-04-24T08:31:11.694Z,18.11
2023-04-24T08:33:39.130Z,18.36
2023-04-24T08:36:07.168Z,18.32
2023-04-24T08:38:35.120Z,18.53
2023-04-24T08:41:03.012Z,18.78
2023-04-24T08:43:34.117Z,18.54
2023-04-24T08:46:02.498Z,18.38
2023-04-24T08:48:32.783Z,18.68
2023-04-24T08:51:00.637Z,18.68
2023-04-24T08:53:28.312Z,18.65
2023-04-24T08:55:57.873Z,18.81
2023-04-24T08:58:29.396Z,18.93
2023-04-24T09:00:57.253Z,19.53
2023-04-24T09:03:25.405Z,19.22
2023-04-24T09:05:53.832Z,20.02
2023-04-24T09:08:24.659Z,19.83
2023-04-24T09:10:52.316Z,19.97
2023-04-24T09:13:21.454Z,19.64
2023-04-24T09:15:48.974Z,19.62
2023-04-24T09:18:18.725Z,19.34
2023-04-24T09:21:04.896Z,19.09
2023-04-24T09:23:33.073Z,19.38
2023-04-24T09:26:03.085Z,19.60
2023-04-24T09:28:37.233Z,19.72
2023-04-24T09:31:15.092Z,19.49
2023-04-24T09:33:54.888Z,19.28
2023-04-24T09:36:30.824Z,19.16
2023-04-24T09:39:03.075Z,19.08
2023-04-24T09:41:30.817Z,19.09
2023-04-24T09:44:11.963Z,18.92
2023-04-24T09:46:39.597Z,19.36
2023-04-24T09:49:14.666Z,19.37
2023-04-24T09:51:42.146Z,19.44
2023-04-24T09:54:22.572Z,19.61
2023-04-24T09:56:51.765Z,19.74
2023-04-24T09:59:20.611Z,20.09
2023-04-24T10:01:50.459Z,20.60
2023-04-24T10:04:23.985Z,20.58
2023-04-24T10:06:54.086Z,21.23
2023-04-24T10:09:23.814Z,21.43
2023-04-24T10:11:54.478Z,21.21
2023-04-24T10:14:25.086Z,20.77
2023-04-24T10:16:56.159Z,20.97
2023-04-24T10:19:27.276Z,21.19
2023-04-24T10:21:56.867Z,21.32
2023-04-24T10:24:24.346Z,21.33
2023-04-24T10:26:51.812Z,21.82
2023-04-24T10:29:20.850Z,22.60
2023-04-24T10:31:48.708Z,22.43
2023-04-24T10:34:19.389Z,22.19
2023-04-24T10:36:51.967Z,22.06
2023-04-24T10:39:27.309Z,22.05
2023-04-24T10:41:59.518Z,21.96
2023-04-24T10:44:37.703Z,22.26
2023-04-24T10:47:05.808Z,21.91
2023-04-24T10:49:33.451Z,21.91
2023-04-24T10:52:03.479Z,22.00
2023-04-24T10:54:35.193Z,21.97
2023-04-24T10:57:23.952Z,22.20
2023-04-24T11:00:12.702Z,22.02
2023-04-24T11:02:44.809Z,22.16
2023-04-24T11:05:12.533Z,22.26
2023-04-24T11:08:15.082Z,22.48
2023-04-24T11:10:47.863Z,22.64
2023-04-24T11:13:22.502Z,22.39
2023-04-24T11:16:31.609Z,22.73
2023-04-24T11:19:03.444Z,22.47
2023-04-24T11:21:42.423Z,22.10
2023-04-24T11:24:48.499Z,21.54
2023-04-24T11:27:21.532Z,21.88
2023-04-24T11:29:58.092Z,21.77
2023-04-24T11:32:31.956Z,21.11
2023-04-24T11:35:14.443Z,21.00
2023-04-24T11:37:44.665Z,20.96
2023-04-24T11:40:14.588Z,20.64
2023-04-24T11:42:47.370Z,20.94
2023-04-24T11:45:19.976Z,21.05
2023-04-24T11:47:47.347Z,21.25
2023-04-24T11:50:16.746Z,21.45
2023-04-24T11:52:46.769Z,21.71
2023-04-24T11:55:17.185Z,21.99
2023-04-24T11:57:54.100Z,22.30
2023-04-24T12:00:24.487Z,22.04
2023-04-24T12:02:52.825Z,21.92
2023-04-24T12:05:25.461Z,21.59
2023-04-24T12:07:53.831Z,21.57
2023-04-24T12:10:23.007Z,21.53
2023-04-24T12:12:52.492Z,21.41
2023-04-24T12:15:21.886Z,21.10
2023-04-24T12:17:51.636Z,21.32
2023-04-24T12:20:24.489Z,20.87
2023-04-24T12:22:57.178Z,20.85
2023-04-24T12:25:26.991Z,20.88
2023-04-24T12:28:14.170Z,21.40
2023-04-24T12:30:45.879Z,22.09
2023-04-24T12:33:13.750Z,22.78
2023-04-24T12:35:42.115Z,23.28
2023-04-24T12:38:11.757Z,23.80
2023-04-24T12:40:39.337Z,24.40
2023-04-24T12:43:20.422Z,24.87
2023-04-24T12:45:50.683Z,24.87
2023-04-24T12:48:18.256Z,25.86
2023-04-24T12:50:47.331Z,26.62
2023-04-24T12:53:15.705Z,26.29
2023-04-24T12:55:43.279Z,25.89
2023-04-24T12:58:11.678Z,26.24
2023-04-24T13:00:40.004Z,26.45
2023-04-24T13:03:07.583Z,25.92
2023-04-24T13:05:35.296Z,25.78
2023-04-24T13:08:02.664Z,26.27
2023-04-24T13:10:30.400Z,26.06
2023-04-24T13:12:58.481Z,26.24
2023-04-24T13:15:25.904Z,25.79
2023-04-24T13:17:53.921Z,25.35
2023-04-24T13:20:21.439Z,26.27
2023-04-24T13:22:48.866Z,27.05
2023-04-24T13:25:18.141Z,27.09
2023-04-24T13:27:45.754Z,26.57
2023-04-24T13:30:13.924Z,26.10
2023-04-24T13:32:41.899Z,26.00
2023-04-24T13:35:09.762Z,25.79
2023-04-24T13:37:37.272Z,26.25
2023-04-24T13:40:07.238Z,26.05
2023-04-24T13:42:35.384Z,26.62
2023-04-24T13:45:13.912Z,26.59
2023-04-24T13:47:45.584Z,26.52
2023-04-24T13:50:13.061Z,26.14
2023-04-24T13:52:40.651Z,26.12
2023-04-24T13:55:08.332Z,25.75
2023-04-24T13:57:36.353Z,25.70
2023-04-24T14:00:05.276Z,25.29
2023-04-24T14:02:33.589Z,24.68
2023-04-24T14:05:01.519Z,24.85
2023-04-24T14:07:29.570Z,24.71
2023-04-24T14:09:57.932Z,23.16
2023-04-24T14:12:25.370Z,23.13
2023-04-24T14:14:52.757Z,23.48
2023-04-24T14:17:20.107Z,23.19
2023-04-24T14:19:47.869Z,23.04
2023-04-24T14:22:15.267Z,22.83
2023-04-24T14:24:42.707Z,22.52
2023-04-24T14:27:10.245Z,22.72
2023-04-24T14:29:37.658Z,22.51
2023-04-24T14:32:05.089Z,22.24
2023-04-24T14:34:32.972Z,21.96
2023-04-24T14:37:00.380Z,21.72
2023-04-24T14:39:27.757Z,21.87
2023-04-24T14:41:55.264Z,21.69
2023-04-24T14:44:22.849Z,21.48
2023-04-24T14:46:51.039Z,21.42
2023-04-24T14:49:18.460Z,21.23
2023-04-24T14:51:45.937Z,21.00
2023-04-24T14:54:13.529Z,21.07
2023-04-24T14:56:42.032Z,20.99
2023-04-24T14:59:09.579Z,21.00
2023-04-24T15:01:37.000Z,20.97
2023-04-24T15:04:04.681Z,20.84
2023-04-24T15:06:33.000Z,20.77
2023-04-24T15:09:02.023Z,20.72
2023-04-24T15:11:30.069Z,20.90
2023-04-24T15:13:58.140Z,20.65
2023-04-24T15:16:26.033Z,20.81
2023-04-24T15:18:53.545Z,20.79
2023-04-24T15:21:21.225Z,20.76
2023-04-24T15:23:48.736Z,20.46
2023-04-24T15:26:16.476Z,20.35
2023-04-24T15:28:43.975Z,20.40
2023-04-24T15:31:11.382Z,20.38
2023-04-24T15:33:38.957Z,20.29
2023-04-24T15:36:06.675Z,20.05
2023-04-24T15:38:34.154Z,20.05
2023-04-24T15:41:01.593Z,20.03
2023-04-24T15:43:32.137Z,20.04
2023-04-24T15:45:59.692Z,20.08
2023-04-24T15:48:28.620Z,19.98
2023-04-24T15:50:56.060Z,20.15
2023-04-24T15:53:23.794Z,20.23
2023-04-24T15:55:52.426Z,20.14
2023-04-24T15:58:22.132Z,20.07
2023-04-24T16:00:50.002Z,20.16
2023-04-24T16:03:17.620Z,19.98
2023-04-24T16:05:45.297Z,19.50
2023-04-24T16:08:14.307Z,19.38
2023-04-24T16:10:42.357Z,18.99
2023-04-24T16:13:09.795Z,19.18
2023-04-24T16:15:37.521Z,19.01
2023-04-24T16:18:05.055Z,18.94
2023-04-24T16:20:32.658Z,19.00
2023-04-24T16:23:00.052Z,18.89
2023-04-24T16:25:28.658Z,18.81
2023-04-24T16:27:57.163Z,18.71
2023-04-24T16:30:24.701Z,18.73
2023-04-24T16:32:52.191Z,18.69
2023-04-24T16:35:19.596Z,18.70
2023-04-24T16:37:47.011Z,18.79
2023-04-24T16:40:14.821Z,18.40
2023-04-24T16:42:42.251Z,18.37
2023-04-24T16:45:10.387Z,18.21
2023-04-24T16:47:38.189Z,18.07
2023-04-24T16:50:06.609Z,18.12
2023-04-24T16:52:34.046Z,18.00
2023-04-24T16:55:01.485Z,17.93
2023-04-24T16:57:29.346Z,17.90
2023-04-24T16:59:56.773Z,17.83
2023-04-24T17:02:24.246Z,17.69
2023-04-24T17:04:51.663Z,17.68
2023-04-24T17:07:19.259Z,17.76
2023-04-24T17:09:47.187Z,17.69
2023-04-24T17:12:15.699Z,17.59
2023-04-24T17:14:43.137Z,17.55
2023-04-24T17:17:11.143Z,17.54
2023-04-24T17:19:38.699Z,17.43
2023-04-24T17:22:06.621Z,17.37
2023-04-24T17:24:34.486Z,17.26
2023-04-24T17:27:14.010Z,17.17
2023-04-24T17:29:42.577Z,17.16
2023-04-24T17:32:10.169Z,17.11
2023-04-24T17:34:37.634Z,16.93
2023-04-24T17:37:05.106Z,16.82
2023-04-24T17:39:32.650Z,16.80
2023-04-24T17:42:00.204Z,16.95
2023-04-24T17:44:27.744Z,17.01
2023-04-24T17:46:55.145Z,16.97
2023-04-24T17:49:23.176Z,16.89
2023-04-24T17:51:50.661Z,16.81
2023-04-24T17:54:18.383Z,16.88
2023-04-24T17:56:46.525Z,16.64
2023-04-24T17:59:14.071Z,16.60
2023-04-24T18:01:41.596Z,16.79
2023-04-24T18:04:09.382Z,16.79
2023-04-24T18:06:37.163Z,16.65
2023-04-24T18:09:04.613Z,16.66
2023-04-24T18:11:32.417Z,16.52
2023-04-24T18:14:01.717Z,16.60
2023-04-24T18:16:29.421Z,16.56
2023-04-24T18:18:56.866Z,16.62
2023-04-24T18:21:25.195Z,16.53
2023-04-24T18:23:52.904Z,16.41
2023-04-24T18:26:20.745Z,16.45
2023-04-24T18:28:48.982Z,16.47
2023-04-24T18:31:16.874Z,16.26
2023-04-24T18:33:44.489Z,16.29
2023-04-24T18:36:12.204Z,16.15
2023-04-24T18:38:39.920Z,16.15
2023-04-24T18:41:07.432Z,16.17
2023-04-24T18:43:35.067Z,16.08
2023-04-24T18:46:02.520Z,16.05
2023-04-24T18:48:31.305Z,15.92
2023-04-24T18:50:58.818Z,15.78
2023-04-24T18:53:26.376Z,15.81
2023-04-24T18:55:53.877Z,15.74
2023-04-24T18:58:21.298Z,15.67
2023-04-24T19:00:48.930Z,15.71
2023-04-24T19:03:16.969Z,15.59
2023-04-24T19:05:44.571Z,15.44
2023-04-24T19:08:12.026Z,15.39
2023-04-24T19:10:39.678Z,15.37
2023-04-24T19:13:07.290Z,15.17
2023-04-24T19:15:35.313Z,15.31
2023-04-24T19:18:02.940Z,15.11
2023-04-24T19:20:31.678Z,14.79
2023-04-24T19:22:59.323Z,14.74
2023-04-24T19:25:26.758Z,14.69
2023-04-24T19:27:54.895Z,14.65
2023-04-24T19:30:22.481Z,14.60
2023-04-24T19:32:50.171Z,14.52
2023-04-24T19:35:17.790Z,14.42
2023-04-24T19:37:45.352Z,14.37
2023-04-24T19:40:13.063Z,14.35
2023-04-24T19:42:44.293Z,14.29
2023-04-24T19:45:13.178Z,14.19
2023-04-24T19:47:41.763Z,14.19
2023-04-24T19:50:10.340Z,14.11
2023-04-24T19:52:38.526Z,14.18
2023-04-24T19:55:06.330Z,14.12
2023-04-24T19:57:34.153Z,14.07
2023-04-24T20:00:01.536Z,14.08
2023-04-24T20:02:29.411Z,14.21
2023-04-24T20:04:57.329Z,14.09
2023-04-24T20:07:25.887Z,14.17
2023-04-24T20:09:53.474Z,14.23
2023-04-24T20:12:20.977Z,14.30
2023-04-24T20:14:48.626Z,14.35
2023-04-24T20:17:18.795Z,14.42
2023-04-24T20:19:46.574Z,14.47
2023-04-24T20:22:14.125Z,14.54
2023-04-24T20:24:41.563Z,14.50
2023-04-24T20:27:08.957Z,14.57
2023-04-24T20:29:36.335Z,14.53
2023-04-24T20:32:03.906Z,14.55
2023-04-24T20:34:31.719Z,14.54
2023-04-24T20:36:59.353Z,14.54
2023-04-24T20:39:26.825Z,14.59
2023-04-24T20:41:54.371Z,14.61
2023-04-24T20:44:22.488Z,14.67
2023-04-24T20:46:50.017Z,14.44
2023-04-24T20:49:17.400Z,14.27
2023-04-24T20:51:44.753Z,14.25
2023-04-24T20:54:12.097Z,14.28
2023-04-24T20:56:39.658Z,14.14
2023-04-24T20:59:07.305Z,14.17
2023-04-24T21:01:34.761Z,14.05
2023-04-24T21:04:02.154Z,13.97
2023-04-24T21:06:29.866Z,14.01
2023-04-24T21:08:57.585Z,14.24
2023-04-24T21:11:24.924Z,14.09
2023-04-24T21:13:52.303Z,14.07
2023-04-24T21:16:19.971Z,14.25
2023-04-24T21:18:47.523Z,14.18
2023-04-24T21:21:15.139Z,14.17
2023-04-24T21:23:42.808Z,13.87
2023-04-24T21:26:11.038Z,14.11
2023-04-24T21:28:38.585Z,14.04
2023-04-24T21:31:06.008Z,14.19
2023-04-24T21:33:34.216Z,14.20
2023-04-24T21:36:01.594Z,14.02
2023-04-24T21:38:29.594Z,13.95
2023-04-24T21:40:56.988Z,14.00
2023-04-24T21:43:30.773Z,14.04
2023-04-24T21:46:05.105Z,13.94
2023-04-24T21:48:32.741Z,14.15
2023-04-24T21:51:00.207Z,14.10
2023-04-24T21:53:29.605Z,14.23
2023-04-24T21:55:57.290Z,14.17
2023-04-24T21:58:25.108Z,14.12
2023-04-24T22:00:52.945Z,14.03
2023-04-24T22:03:20.651Z,14.06
2023-04-24T22:05:48.166Z,14.00
2023-04-24T22:08:15.648Z,13.98
2023-04-24T22:10:42.991Z,13.90
2023-04-24T22:13:10.392Z,13.93
2023-04-24T22:15:37.806Z,13.95
2023-04-24T22:18:06.765Z,13.98
2023-04-24T22:20:34.611Z,13.93
2023-04-24T22:23:02.171Z,13.89
2023-04-24T22:25:29.782Z,14.10
2023-04-24T22:27:57.334Z,14.03
2023-04-24T22:30:24.811Z,14.09
2023-04-24T22:32:52.429Z,14.13
2023-04-24T22:35:20.441Z,14.09
2023-04-24T22:37:53.861Z,14.04
2023-04-24T22:40:21.458Z,13.91
2023-04-24T22:42:48.898Z,13.87
2023-04-24T22:45:16.745Z,13.77
2023-04-24T22:47:44.264Z,13.74
2023-04-24T22:50:11.742Z,13.82
2023-04-24T22:52:41.757Z,13.94
2023-04-24T22:55:09.825Z,13.83
2023-04-24T22:57:37.483Z,13.56
2023-04-24T23:00:11.358Z,13.70
2023-04-24T23:02:40.652Z,13.75
2023-04-24T23:05:09.423Z,13.74
2023-04-24T23:07:38.447Z,13.79
2023-04-24T23:10:06.783Z,13.81
2023-04-24T23:12:34.658Z,13.65
2023-04-24T23:15:02.034Z,13.60
2023-04-24T23:17:29.778Z,13.64
2023-04-24T23:19:57.191Z,13.64
2023-04-24T23:22:24.751Z,13.75
2023-04-24T23:24:52.155Z,13.70
2023-04-24T23:27:19.471Z,13.90
2023-04-24T23:29:46.819Z,13.76
2023-04-24T23:32:14.232Z,13.84
2023-04-24T23:34:41.706Z,13.76
2023-04-24T23:37:09.257Z,13.80
2023-04-24T23:39:36.810Z,13.83
2023-04-24T23:42:04.578Z,13.80
2023-04-24T23:44:31.968Z,13.81
2023-04-24T23:46:59.836Z,13.80
2023-04-24T23:49:27.465Z,13.76
2023-04-24T23:51:56.126Z,13.66
2023-04-24T23:54:23.669Z,13.74
2023-04-24T23:56:51.282Z,13.74
2023-04-24T23:59:20.786Z,13.62
